Time;durP1;ratioP1;P1;durP2;ratioP2;P2;SDS_P1;SDS_P2;PMS_P1;PMS_P2;Temp;Humidity;BMP_temperature;BMP_pressure;BME280_temperature;BME280_humidity;BME280_pressure;Samples;Min_cycle;Max_cycle;Signal;HPM_P1;HPM_P2
2023/05/11 00:00:32;;;;;;;14.10;12.48;;;12.50;99.90;;;;;;4934884;29;20082;-85
2023/05/11 00:02:58;;;;;;;14.52;12.77;;;12.40;99.90;;;;;;4900306;29;20032;-84
2023/05/11 00:05:23;;;;;;;14.75;13.35;;;12.40;99.90;;;;;;4931772;29;20122;-85
2023/05/11 00:07:54;;;;;;;14.65;13.05;;;12.40;99.90;;;;;;4916948;29;20102;-84
2023/05/11 00:10:31;;;;;;;15.57;13.07;;;12.60;99.90;;;;;;4912414;29;20040;-85
2023/05/11 00:13:03;;;;;;;16.92;13.75;;;12.50;99.90;;;;;;4932955;29;20051;-84
2023/05/11 00:15:36;;;;;;;16.50;14.55;;;12.40;99.90;;;;;;4916127;29;20055;-85
2023/05/11 00:18:05;;;;;;;16.33;14.60;;;13.10;99.90;;;;;;4894480;29;20059;-85
2023/05/11 00:20:41;;;;;;;19.20;16.13;;;12.20;99.90;;;;;;4914548;29;20546;-85
2023/05/11 00:23:13;;;;;;;19.95;16.05;;;12.20;99.90;;;;;;4913766;29;20079;-85
2023/05/11 00:25:41;;;;;;;20.20;16.35;;;12.10;99.90;;;;;;4915164;29;20031;-85
2023/05/11 00:28:09;;;;;;;20.90;17.00;;;12.10;99.90;;;;;;4898862;29;20036;-85
2023/05/11 00:30:35;;;;;;;22.05;16.77;;;12.10;99.90;;;;;;4916888;29;20086;-85
2023/05/11 00:33:00;;;;;;;21.25;16.30;;;12.00;99.90;;;;;;4917582;29;20067;-84
2023/05/11 00:35:26;;;;;;;18.35;16.00;;;12.00;99.90;;;;;;4918325;29;20102;-85
2023/05/11 00:37:51;;;;;;;23.08;16.60;;;12.00;99.90;;;;;;4919946;29;20042;-85
2023/05/11 00:40:17;;;;;;;19.15;16.48;;;12.00;99.90;;;;;;4915612;29;20035;-85
2023/05/11 00:42:42;;;;;;;22.75;17.17;;;12.00;99.90;;;;;;4915916;29;20050;-85
2023/05/11 00:45:10;;;;;;;21.05;16.00;;;12.00;99.90;;;;;;4917670;29;20794;-85
2023/05/11 00:47:36;;;;;;;21.92;16.90;;;12.00;99.90;;;;;;4916306;29;20072;-84
2023/05/11 00:50:02;;;;;;;18.15;15.38;;;12.00;99.90;;;;;;4919149;29;20470;-85
2023/05/11 00:52:30;;;;;;;20.02;15.95;;;12.00;99.90;;;;;;4917964;29;20115;-84
2023/05/11 00:54:56;;;;;;;18.02;16.08;;;12.00;99.90;;;;;;4932326;29;20036;-85
2023/05/11 00:57:22;;;;;;;19.95;14.95;;;12.10;99.90;;;;;;4914394;29;20068;-85
2023/05/11 00:59:48;;;;;;;20.92;16.05;;;12.10;99.90;;;;;;4917913;29;20039;-85
2023/05/11 01:02:17;;;;;;;19.05;15.18;;;12.10;99.90;;;;;;4919077;29;20040;-85
2023/05/11 01:04:46;;;;;;;21.17;16.73;;;12.20;99.90;;;;;;4915882;29;20464;-85
2023/05/11 01:07:23;;;;;;;20.08;16.85;;;12.10;99.90;;;;;;4914306;29;20066;-84
2023/05/11 01:10:07;;;;;;;17.38;15.10;;;12.10;99.90;;;;;;4914870;29;20075;-85
2023/05/11 01:12:45;;;;;;;20.10;15.50;;;12.10;99.90;;;;;;4918545;29;20047;-85
2023/05/11 01:15:27;;;;;;;22.15;17.60;;;12.10;99.90;;;;;;4912497;29;20052;-84
2023/05/11 01:18:17;;;;;;;19.80;15.38;;;12.10;99.90;;;;;;4896081;29;20399;-84
2023/05/11 01:20:47;;;;;;;20.98;16.05;;;13.10;99.90;;;;;;4928341;29;20090;-85
2023/05/11 01:23:44;;;;;;;21.88;17.55;;;12.10;99.90;;;;;;4915793;29;20043;-85
2023/05/11 01:26:28;;;;;;;;;;;12.10;99.90;;;;;;4917837;29;20047;-84
2023/05/11 01:29:18;;;;;;;17.67;15.18;;;12.00;99.90;;;;;;4917693;29;19926;-84
2023/05/11 01:31:48;;;;;;;19.13;15.10;;;12.10;99.90;;;;;;4913383;29;20510;-84
2023/05/11 01:34:20;;;;;;;17.23;13.95;;;12.10;99.90;;;;;;4918355;29;20467;-85
2023/05/11 01:36:55;;;;;;;18.10;14.80;;;12.00;99.90;;;;;;4915869;29;20099;-85
2023/05/11 01:39:34;;;;;;;19.63;14.38;;;12.10;99.90;;;;;;4912417;29;20413;-85
2023/05/11 01:42:09;;;;;;;15.75;14.15;;;12.00;99.90;;;;;;4912521;29;20044;-84
2023/05/11 01:44:38;;;;;;;16.55;14.02;;;12.00;99.90;;;;;;4917839;29;20123;-85
2023/05/11 01:47:09;;;;;;;17.02;15.00;;;12.00;99.90;;;;;;4918322;29;20054;-84
2023/05/11 01:49:41;;;;;;;17.85;14.20;;;12.10;99.90;;;;;;4937683;29;20059;-86
2023/05/11 01:52:08;;;;;;;17.38;14.82;;;12.00;99.90;;;;;;4919875;29;20047;-85
2023/05/11 01:54:42;;;;;;;20.13;15.10;;;12.00;99.90;;;;;;4920204;29;20047;-85
2023/05/11 01:57:10;;;;;;;18.05;14.88;;;12.00;99.90;;;;;;4936719;29;20051;-85
2023/05/11 01:59:39;;;;;;;20.92;15.48;;;12.00;99.90;;;;;;4934557;29;20055;-86
2023/05/11 02:02:07;;;;;;;17.58;14.57;;;12.00;99.90;;;;;;4916270;29;20048;-85
2023/05/11 02:04:35;;;;;;;19.20;14.98;;;12.00;99.90;;;;;;4918812;29;20126;-85
2023/05/11 02:07:01;;;;;;;16.70;14.88;;;12.00;99.90;;;;;;4902365;29;20036;-85
2023/05/11 02:09:30;;;;;;;18.77;15.55;;;11.90;99.90;;;;;;4919119;29;20388;-85
2023/05/11 02:12:06;;;;;;;16.70;14.63;;;12.00;99.90;;;;;;4920422;29;20044;-85
2023/05/11 02:14:35;;;;;;;16.23;14.52;;;11.90;99.90;;;;;;4917654;29;20044;-85
2023/05/11 02:17:02;;;;;;;17.33;14.55;;;11.90;99.90;;;;;;4919750;29;20055;-85
2023/05/11 02:19:40;;;;;;;20.10;15.63;;;11.90;99.90;;;;;;4920535;29;20047;-86
2023/05/11 02:22:16;;;;;;;16.73;14.27;;;11.90;99.90;;;;;;4922582;29;20040;-85
2023/05/11 02:24:42;;;;;;;17.02;14.57;;;11.90;99.90;;;;;;4918044;29;20040;-85
2023/05/11 02:27:08;;;;;;;20.38;15.55;;;11.90;99.90;;;;;;4917669;29;20067;-85
2023/05/11 02:29:37;;;;;;;18.52;13.98;;;11.90;99.90;;;;;;4920851;29;20071;-85
2023/05/11 02:32:11;;;;;;;20.63;14.50;;;11.90;99.90;;;;;;4919628;29;20052;-86
2023/05/11 02:34:47;;;;;;;19.13;15.18;;;11.90;99.90;;;;;;4920884;29;20040;-85
2023/05/11 02:37:17;;;;;;;20.48;14.90;;;11.80;99.90;;;;;;4917544;29;20063;-85
2023/05/11 02:39:51;;;;;;;18.00;14.23;;;11.80;99.90;;;;;;4916062;29;20044;-85
2023/05/11 02:42:29;;;;;;;16.38;14.02;;;11.80;99.90;;;;;;4914271;29;20138;-85
2023/05/11 02:45:01;;;;;;;16.98;14.18;;;11.80;99.90;;;;;;4914051;29;20591;-83
2023/05/11 02:47:29;;;;;;;16.15;13.35;;;11.80;99.90;;;;;;4936244;29;20036;-85
2023/05/11 02:49:57;;;;;;;16.08;13.82;;;11.80;99.90;;;;;;4920216;29;20510;-85
2023/05/11 02:52:26;;;;;;;14.52;12.95;;;11.80;99.90;;;;;;4936020;29;20095;-85
2023/05/11 02:54:56;;;;;;;17.08;13.85;;;11.80;99.90;;;;;;4916673;29;20131;-84
2023/05/11 02:57:28;;;;;;;17.33;14.65;;;11.80;99.90;;;;;;4916066;29;20044;-85
2023/05/11 03:00:03;;;;;;;20.88;16.08;;;11.80;99.90;;;;;;4918033;29;20544;-85
2023/05/11 03:02:29;;;;;;;17.58;15.57;;;11.80;99.90;;;;;;4920058;29;20152;-86
2023/05/11 03:04:54;;;;;;;18.95;15.30;;;11.80;99.90;;;;;;4914717;29;20051;-86
2023/05/11 03:07:20;;;;;;;17.55;14.40;;;11.80;99.90;;;;;;4933479;29;20047;-85
2023/05/11 03:09:49;;;;;;;17.77;15.43;;;11.90;99.90;;;;;;4917572;29;20498;-85
2023/05/11 03:12:15;;;;;;;16.80;14.88;;;11.80;99.90;;;;;;4920022;29;20594;-85
2023/05/11 03:14:41;;;;;;;19.85;16.73;;;12.40;99.90;;;;;;4919200;29;20142;-85
2023/05/11 03:17:11;;;;;;;16.90;14.90;;;11.80;99.90;;;;;;4920751;29;20074;-85
2023/05/11 03:19:38;;;;;;;16.75;14.82;;;11.80;99.90;;;;;;4922845;29;20044;-85
2023/05/11 03:22:04;;;;;;;20.50;15.05;;;11.80;99.90;;;;;;4916299;29;20064;-84
2023/05/11 03:24:30;;;;;;;16.63;14.32;;;11.70;99.90;;;;;;4919575;29;20036;-85
2023/05/11 03:27:02;;;;;;;19.17;15.35;;;11.70;99.90;;;;;;4917633;29;20050;-85
2023/05/11 03:29:30;;;;;;;25.38;17.02;;;11.70;99.90;;;;;;4915235;29;20514;-85
2023/05/11 03:31:56;;;;;;;21.30;16.42;;;11.60;99.90;;;;;;4919604;29;20119;-86
2023/05/11 03:34:24;;;;;;;22.02;16.65;;;11.60;99.90;;;;;;4932645;29;20683;-85
2023/05/11 03:36:52;;;;;;;25.55;16.85;;;11.50;99.90;;;;;;4900733;29;20119;-85
2023/05/11 03:39:22;;;;;;;23.15;18.08;;;11.40;99.90;;;;;;4903659;29;20051;-86
2023/05/11 03:41:50;;;;;;;31.77;19.83;;;11.40;99.90;;;;;;4922279;29;20058;-86
2023/05/11 03:44:22;;;;;;;27.30;19.83;;;11.40;99.90;;;;;;4911258;29;20511;-86
2023/05/11 03:46:49;;;;;;;28.40;19.40;;;11.40;99.90;;;;;;4919834;29;20028;-86
2023/05/11 03:49:27;;;;;;;24.73;18.02;;;11.50;99.90;;;;;;4903439;29;20036;-86
2023/05/11 03:51:53;;;;;;;27.02;19.05;;;11.80;99.90;;;;;;4918565;29;20040;-85
2023/05/11 03:54:22;;;;;;;31.02;20.73;;;11.40;99.90;;;;;;4917841;29;20048;-86
2023/05/11 03:56:48;;;;;;;44.70;21.35;;;11.50;99.90;;;;;;4916712;29;20075;-84
2023/05/11 03:59:45;;;;;;;29.60;19.67;;;11.50;99.90;;;;;;4902376;29;20093;-86
2023/05/11 04:02:23;;;;;;;35.75;20.25;;;11.40;99.90;;;;;;4915981;29;20059;-85
2023/05/11 04:04:49;;;;;;;36.38;21.50;;;11.40;99.90;;;;;;4917342;29;20087;-85
2023/05/11 04:07:15;;;;;;;28.38;20.30;;;11.40;99.90;;;;;;4929667;29;20044;-85
2023/05/11 04:09:49;;;;;;;30.40;19.15;;;12.00;99.90;;;;;;4910468;29;20044;-85
2023/05/11 04:12:21;;;;;;;31.13;19.92;;;11.40;99.90;;;;;;4904850;29;20036;-84
2023/05/11 04:14:49;;;;;;;39.97;20.38;;;11.40;99.90;;;;;;4916929;29;20143;-85
2023/05/11 04:17:20;;;;;;;31.20;18.70;;;11.40;99.90;;;;;;4911148;29;20047;-85
2023/05/11 04:19:52;;;;;;;21.52;16.00;;;11.40;99.90;;;;;;4916553;29;20075;-84
2023/05/11 04:22:18;;;;;;;21.33;16.33;;;11.30;99.90;;;;;;4911639;29;20054;-84
2023/05/11 04:24:46;;;;;;;21.40;15.50;;;11.30;99.90;;;;;;4912382;29;20044;-86
2023/05/11 04:27:15;;;;;;;22.52;15.75;;;10.90;99.90;;;;;;4915613;29;20048;-86
2023/05/11 04:29:44;;;;;;;23.33;16.42;;;11.30;99.90;;;;;;4916939;29;20048;-86
2023/05/11 04:32:12;;;;;;;24.45;17.60;;;11.70;99.90;;;;;;4901826;29;20051;-86
2023/05/11 04:34:44;;;;;;;27.27;17.58;;;11.30;99.90;;;;;;4917224;29;20044;-84
2023/05/11 04:37:12;;;;;;;27.05;19.00;;;11.40;99.90;;;;;;4912812;29;20059;-84
2023/05/11 04:39:51;;;;;;;29.95;19.17;;;11.40;99.90;;;;;;4930157;29;20139;-82
2023/05/11 04:42:20;;;;;;;27.23;18.65;;;11.50;99.90;;;;;;4918220;29;20507;-83
2023/05/11 04:44:48;;;;;;;26.23;18.67;;;11.40;99.90;;;;;;4912929;29;20114;-84
2023/05/11 04:47:14;;;;;;;31.63;19.88;;;11.40;99.90;;;;;;4897041;29;20040;-83
2023/05/11 04:49:40;;;;;;;29.42;20.00;;;11.40;99.90;;;;;;4928312;29;20907;-84
2023/05/11 04:52:08;;;;;;;29.55;19.42;;;11.40;99.90;;;;;;4913057;29;20051;-84
2023/05/11 04:54:35;;;;;;;30.13;19.02;;;11.40;99.90;;;;;;4902008;29;20059;-85
2023/05/11 04:57:07;;;;;;;37.55;21.92;;;11.40;99.90;;;;;;4912599;29;20088;-84
2023/05/11 04:59:32;;;;;;;42.17;23.50;;;11.40;99.90;;;;;;4917314;29;20036;-84
2023/05/11 05:01:58;;;;;;;39.47;22.52;;;11.40;99.90;;;;;;4915648;29;20063;-83
2023/05/11 05:04:29;;;;;;;43.38;24.30;;;11.40;99.90;;;;;;4930576;29;20075;-85
2023/05/11 05:06:55;;;;;;;42.70;24.45;;;11.70;99.90;;;;;;4899788;29;21608;-84
2023/05/11 05:09:21;;;;;;;40.25;22.92;;;11.50;99.90;;;;;;4914052;29;20080;-85
2023/05/11 05:11:52;;;;;;;40.38;22.30;;;11.60;99.90;;;;;;4911152;29;20082;-84
2023/05/11 05:14:21;;;;;;;40.22;23.35;;;11.50;99.90;;;;;;4914626;29;20055;-83
2023/05/11 05:16:47;;;;;;;40.97;24.10;;;11.50;99.90;;;;;;4911782;29;20043;-84
2023/05/11 05:19:18;;;;;;;65.57;28.00;;;11.60;99.90;;;;;;4912142;29;20047;-83
2023/05/11 05:21:43;;;;;;;53.13;24.75;;;11.90;99.90;;;;;;4909327;29;20040;-83
2023/05/11 05:24:11;;;;;;;71.82;28.50;;;11.60;99.90;;;;;;4914685;29;20055;-84
2023/05/11 05:26:36;;;;;;;46.08;25.23;;;11.60;99.90;;;;;;4920096;29;20044;-84
2023/05/11 05:29:02;;;;;;;46.72;24.42;;;11.60;99.90;;;;;;4898136;29;20040;-83
2023/05/11 05:31:30;;;;;;;46.40;24.17;;;11.60;99.90;;;;;;4912247;29;20198;-85
2023/05/11 05:33:58;;;;;;;45.08;25.80;;;11.70;99.90;;;;;;4914934;29;20186;-84
2023/05/11 05:36:31;;;;;;;48.45;24.80;;;11.60;99.90;;;;;;4918027;29;20040;-84
2023/05/11 05:38:59;;;;;;;50.33;25.70;;;11.70;99.90;;;;;;4909071;29;20126;-84
2023/05/11 05:41:25;;;;;;;53.90;26.40;;;11.70;99.90;;;;;;4907223;29;20056;-84
2023/05/11 05:43:53;;;;;;;52.85;26.30;;;11.70;99.90;;;;;;4912910;29;20171;-84
2023/05/11 05:46:19;;;;;;;73.60;28.88;;;12.20;99.90;;;;;;4923417;29;20044;-83
2023/05/11 05:48:44;;;;;;;48.03;24.52;;;11.80;99.90;;;;;;4915562;29;20071;-83
2023/05/11 05:51:10;;;;;;;52.28;26.77;;;11.80;99.90;;;;;;4908737;29;20078;-83
2023/05/11 05:53:36;;;;;;;53.83;28.25;;;11.90;99.90;;;;;;4907102;29;20139;-84
2023/05/11 05:56:05;;;;;;;55.85;27.52;;;12.00;99.90;;;;;;4912226;29;20085;-85
2023/05/11 05:58:31;;;;;;;49.25;24.05;;;12.00;99.90;;;;;;4910387;29;20036;-82
2023/05/11 06:00:57;;;;;;;35.15;19.58;;;12.10;99.90;;;;;;4908349;29;20043;-82
2023/05/11 06:04:17;;;;;;;40.85;20.52;;;12.10;99.90;;;;;;4921826;29;20048;-81
2023/05/11 06:06:48;;;;;;;37.03;17.90;;;12.20;99.90;;;;;;4876217;29;20052;-82
2023/05/11 06:09:14;;;;;;;27.90;17.65;;;12.10;99.90;;;;;;4913482;29;20076;-82
2023/05/11 06:11:40;;;;;;;23.75;16.10;;;12.10;99.90;;;;;;4912875;29;20985;-82
2023/05/11 06:14:05;;;;;;;27.08;16.73;;;12.10;99.90;;;;;;4915097;29;20470;-82
2023/05/11 06:16:31;;;;;;;27.67;17.50;;;12.20;99.90;;;;;;4915453;29;20044;-84
2023/05/11 06:18:56;;;;;;;22.45;15.90;;;12.10;99.90;;;;;;4920102;29;20040;-83
2023/05/11 06:21:22;;;;;;;30.65;17.48;;;12.20;99.90;;;;;;4918681;29;20036;-82
2023/05/11 06:23:47;;;;;;;22.52;16.92;;;12.20;99.90;;;;;;4912434;29;20040;-82
2023/05/11 06:26:13;;;;;;;24.33;17.17;;;12.20;99.90;;;;;;4913510;29;20127;-81
2023/05/11 06:28:38;;;;;;;32.10;19.50;;;12.20;99.90;;;;;;4914325;29;20040;-83
2023/05/11 06:31:04;;;;;;;28.15;18.40;;;12.20;99.90;;;;;;4912964;29;20044;-83
2023/05/11 06:33:42;;;;;;;25.20;17.60;;;12.20;99.90;;;;;;4915617;29;20044;-83
2023/05/11 06:36:12;;;;;;;31.60;18.75;;;12.20;99.90;;;;;;4916695;29;20122;-83
2023/05/11 06:38:51;;;;;;;31.35;19.55;;;12.30;99.90;;;;;;4917249;29;20048;-83
2023/05/11 06:41:56;;;;;;;32.67;19.50;;;12.50;99.90;;;;;;4917797;29;20052;-83
2023/05/11 06:44:24;;;;;;;26.63;18.88;;;12.30;99.90;;;;;;4920210;29;20114;-83
2023/05/11 06:46:59;;;;;;;34.63;20.08;;;12.50;99.90;;;;;;4924456;29;20063;-83
2023/05/11 06:49:38;;;;;;;29.02;19.67;;;13.20;99.90;;;;;;4920770;29;20131;-83
2023/05/11 06:52:13;;;;;;;31.45;20.80;;;12.30;99.90;;;;;;4920074;29;20075;-83
2023/05/11 06:54:52;;;;;;;;;;;;;;;;;;;;;
2023/05/11 06:57:42;;;;;;;28.58;19.25;;;12.30;99.90;;;;;;4916573;29;20048;-83
2023/05/11 07:00:12;;;;;;;29.30;18.40;;;12.30;99.90;;;;;;4919438;29;20036;-83
2023/05/11 07:03:08;;;;;;;;;;;;;;;;;;;;;
2023/05/11 07:05:40;;;;;;;31.30;19.98;;;12.70;99.90;;;;;;4923445;29;20083;-83
2023/05/11 07:08:11;;;;;;;31.35;20.00;;;12.50;99.90;;;;;;4918809;29;20048;-83
2023/05/11 07:16:18;;;;;;;32.00;20.85;;;12.30;99.90;;;;;;4917526;29;20063;-83
2023/05/11 07:18:43;;;;;;;28.85;19.88;;;12.30;99.90;;;;;;4903485;29;20069;-83
2023/05/11 07:21:15;;;;;;;29.00;20.35;;;12.30;99.90;;;;;;4921818;29;20040;-84
2023/05/11 07:23:41;;;;;;;31.40;21.45;;;12.40;99.90;;;;;;4918622;29;20047;-84
2023/05/11 07:26:16;;;;;;;31.48;19.60;;;12.40;99.90;;;;;;4919640;29;20075;-84
2023/05/11 07:28:47;;;;;;;26.42;18.45;;;12.60;99.90;;;;;;4920031;29;20048;-83
2023/05/11 07:31:17;;;;;;;29.10;18.38;;;12.50;99.90;;;;;;4922518;29;20122;-84
2023/05/11 07:34:01;;;;;;;29.52;17.25;;;12.50;99.90;;;;;;4917871;29;20060;-84
2023/05/11 07:36:51;;;;;;;26.73;18.45;;;11.90;99.90;;;;;;4914762;29;20075;-84
2023/05/11 07:39:22;;;;;;;34.30;19.17;;;12.50;99.90;;;;;;4919504;29;20156;-85
2023/05/11 07:45:09;;;;;;;25.38;15.55;;;12.50;99.90;;;;;;4908287;29;20063;-84
2023/05/11 07:47:40;;;;;;;25.40;14.32;;;12.60;99.90;;;;;;4922602;29;20047;-84
2023/05/11 07:50:18;;;;;;;17.02;12.68;;;12.80;99.90;;;;;;4918692;29;20036;-85
2023/05/11 07:52:43;;;;;;;20.23;14.85;;;12.50;99.90;;;;;;4937464;29;20211;-84
2023/05/11 07:55:12;;;;;;;17.98;12.98;;;12.80;99.90;;;;;;4917538;29;20131;-84
2023/05/11 07:57:42;;;;;;;22.90;15.80;;;12.60;99.90;;;;;;4897656;29;20115;-85
2023/05/11 08:01:05;;;;;;;20.52;14.02;;;13.00;99.90;;;;;;4929674;29;20120;-85
2023/05/11 08:03:45;;;;;;;25.45;15.80;;;12.60;99.90;;;;;;4907733;29;20079;-85
2023/05/11 08:06:46;;;;;;;19.90;12.50;;;13.30;99.90;;;;;;4922983;29;20480;-86
2023/05/11 08:09:21;;;;;;;17.73;13.35;;;12.70;99.90;;;;;;4948098;29;20062;-85
2023/05/11 08:12:16;;;;;;;15.63;10.77;;;12.70;99.90;;;;;;4900918;29;20048;-85
2023/05/11 08:15:27;;;;;;;;;;;;;;;;;;;;;
2023/05/11 08:18:11;;;;;;;17.63;12.15;;;12.70;99.90;;;;;;4909575;29;20130;-85
2023/05/11 08:20:41;;;;;;;16.38;11.68;;;12.70;99.90;;;;;;4914109;29;20063;-85
2023/05/11 08:23:48;;;;;;;17.35;12.00;;;12.70;99.90;;;;;;4928431;29;20040;-85
2023/05/11 08:26:26;;;;;;;16.42;11.57;;;12.70;99.90;;;;;;4917418;29;20723;-85
2023/05/11 08:32:17;;;;;;;14.50;10.32;;;12.70;99.90;;;;;;4911325;29;20443;-85
2023/05/11 08:34:52;;;;;;;11.43;8.68;;;12.80;99.90;;;;;;4907200;29;20048;-85
2023/05/11 08:37:30;;;;;;;12.40;8.57;;;12.80;99.90;;;;;;4909304;29;20048;-86
2023/05/11 08:40:47;;;;;;;;;;;;;;;;;;;;;
2023/05/11 08:43:38;;;;;;;10.23;7.80;;;12.80;99.90;;;;;;4914774;29;20048;-85
2023/05/11 08:46:18;;;;;;;10.00;7.50;;;13.50;99.90;;;;;;4911507;29;20460;-84
2023/05/11 08:49:04;;;;;;;8.65;5.80;;;12.90;99.90;;;;;;4921062;29;20309;-84
2023/05/11 08:51:46;;;;;;;6.05;4.40;;;12.90;99.90;;;;;;4912269;29;20042;-84
2023/05/11 08:54:36;;;;;;;12.23;5.38;;;13.10;99.90;;;;;;4908527;29;20084;-84
2023/05/11 08:57:41;;;;;;;;;;;;;;;;;;;;;
2023/05/11 09:00:23;;;;;;;6.15;4.32;;;13.10;99.90;;;;;;4933845;29;20458;-84
2023/05/11 09:02:58;;;;;;;4.85;3.40;;;13.50;99.90;;;;;;4906524;29;20048;-85
2023/05/11 09:06:09;;;;;;;;;;;;;;;;;;;;;
2023/05/11 09:08:36;;;;;;;4.60;3.10;;;13.30;99.90;;;;;;4914550;29;20039;-86
2023/05/11 09:11:06;;;;;;;3.72;2.78;;;13.40;99.90;;;;;;4912183;29;20044;-85
2023/05/11 09:14:02;;;;;;;3.15;2.33;;;13.40;99.90;;;;;;4917911;29;20040;-85
2023/05/11 09:16:28;;;;;;;6.07;3.95;;;13.50;99.90;;;;;;4911909;29;20380;-84
2023/05/11 09:19:08;;;;;;;3.85;3.17;;;13.60;99.90;;;;;;4915890;29;20080;-85
2023/05/11 09:21:39;;;;;;;4.88;3.42;;;13.50;99.90;;;;;;4911801;29;20533;-85
2023/05/11 09:24:15;;;;;;;2.80;2.13;;;13.60;99.90;;;;;;4918655;29;20046;-84
2023/05/11 09:27:08;;;;;;;2.00;1.52;;;13.60;99.90;;;;;;4911848;29;20044;-84
2023/05/11 09:29:34;;;;;;;1.33;1.02;;;13.40;99.90;;;;;;4908452;29;20043;-84
2023/05/11 09:32:16;;;;;;;2.60;1.27;;;13.80;99.90;;;;;;4912488;29;20036;-84
2023/05/11 09:34:44;;;;;;;1.85;1.40;;;13.70;99.90;;;;;;4911916;29;20059;-84
2023/05/11 09:37:19;;;;;;;1.88;1.10;;;13.90;99.90;;;;;;4916745;29;20083;-84
2023/05/11 09:39:52;;;;;;;1.55;1.10;;;13.80;99.90;;;;;;4934375;29;20402;-84
2023/05/11 09:42:36;;;;;;;2.80;0.90;;;13.70;99.90;;;;;;4927653;29;20079;-84
2023/05/11 09:45:10;;;;;;;0.70;0.40;;;13.90;99.90;;;;;;4921500;29;20407;-84
2023/05/11 09:47:41;;;;;;;2.50;0.50;;;13.90;99.90;;;;;;4910758;29;20131;-84
2023/05/11 09:50:16;;;;;;;0.80;0.50;;;13.80;99.90;;;;;;4914272;29;20127;-84
2023/05/11 09:52:56;;;;;;;0.97;0.87;;;13.90;99.90;;;;;;4907859;29;20135;-84
2023/05/11 09:55:21;;;;;;;2.05;1.80;;;14.10;99.90;;;;;;4918267;29;20059;-83
2023/05/11 09:57:54;;;;;;;3.40;2.10;;;14.20;99.90;;;;;;4918389;29;20406;-83
2023/05/11 10:00:20;;;;;;;2.85;2.65;;;14.20;99.90;;;;;;4930212;29;20060;-84
2023/05/11 10:02:57;;;;;;;2.95;2.65;;;14.50;99.90;;;;;;4915088;29;20055;-84
2023/05/11 10:05:23;;;;;;;3.88;3.55;;;14.60;99.90;;;;;;4934042;29;20072;-84
2023/05/11 10:07:58;;;;;;;4.70;4.30;;;14.80;99.90;;;;;;4922642;29;20411;-84
2023/05/11 10:10:27;;;;;;;4.90;4.45;;;15.00;99.90;;;;;;4924781;29;20091;-84
2023/05/11 10:12:54;;;;;;;6.90;5.38;;;15.00;99.90;;;;;;4937292;29;20499;-84
2023/05/11 10:15:24;;;;;;;6.82;6.22;;;15.40;99.90;;;;;;4901329;29;20051;-84
2023/05/11 10:17:50;;;;;;;7.72;6.93;;;15.20;99.90;;;;;;4916882;29;20048;-84
2023/05/11 10:20:16;;;;;;;6.57;5.97;;;15.30;99.90;;;;;;4926300;29;20471;-85
2023/05/11 10:22:43;;;;;;;6.95;6.35;;;15.20;99.90;;;;;;4925031;29;20059;-84
2023/05/11 10:25:10;;;;;;;5.63;5.13;;;14.90;99.90;;;;;;4916271;29;20515;-83
2023/05/11 10:27:36;;;;;;;6.95;5.70;;;15.00;99.90;;;;;;4917096;29;20124;-83
2023/05/11 10:30:02;;;;;;;6.60;6.00;;;15.00;99.90;;;;;;4915461;29;20055;-84
2023/05/11 10:32:30;;;;;;;6.35;5.75;;;15.00;99.90;;;;;;4923386;29;20039;-83
2023/05/11 10:34:55;;;;;;;7.15;6.00;;;14.90;99.90;;;;;;4919977;29;20407;-83
2023/05/11 10:37:23;;;;;;;5.97;5.47;;;15.20;99.90;;;;;;4924670;29;20102;-84
2023/05/11 10:39:48;;;;;;;7.72;6.95;;;14.90;99.90;;;;;;4915622;29;20063;-83
2023/05/11 10:42:48;;;;;;;7.85;7.15;;;15.00;99.90;;;;;;4939442;29;20411;-83
2023/05/11 10:46:08;;;;;;;9.70;8.70;;;15.10;99.90;;;;;;4932197;29;20478;-83
2023/05/11 10:48:49;;;;;;;14.15;10.13;;;15.20;99.90;;;;;;4906539;29;20062;-83
2023/05/11 10:51:49;;;;;;;9.10;8.30;;;15.30;99.90;;;;;;4938542;29;20043;-84
2023/05/11 10:54:26;;;;;;;9.40;8.23;;;15.40;99.90;;;;;;4934014;29;20392;-83
2023/05/11 10:57:06;;;;;;;8.57;7.88;;;15.40;99.90;;;;;;4935442;29;20688;-84
2023/05/11 10:59:48;;;;;;;10.45;9.45;;;15.40;99.90;;;;;;4925556;29;20068;-82
2023/05/11 11:02:15;;;;;;;9.98;9.00;;;15.40;99.90;;;;;;4922894;29;20091;-83
2023/05/11 11:04:46;;;;;;;10.23;9.30;;;15.40;99.90;;;;;;4948375;29;20048;-83
2023/05/11 11:07:16;;;;;;;10.60;9.57;;;15.50;99.90;;;;;;4924358;29;20062;-83
2023/05/11 11:09:56;;;;;;;10.57;9.57;;;15.50;99.90;;;;;;4930819;29;20045;-83
2023/05/11 11:12:23;;;;;;;11.27;9.20;;;15.60;99.90;;;;;;4923956;29;20179;-83
2023/05/11 11:14:53;;;;;;;10.85;9.82;;;15.70;99.90;;;;;;4925723;29;20051;-83
2023/05/11 11:17:19;;;;;;;10.93;9.68;;;15.80;99.90;;;;;;4923728;29;20060;-85
2023/05/11 11:19:44;;;;;;;9.90;8.98;;;15.90;99.90;;;;;;4923858;29;20507;-84
2023/05/11 11:22:40;;;;;;;10.82;9.73;;;16.10;99.90;;;;;;4918620;29;20040;-84
2023/05/11 11:25:10;;;;;;;11.35;10.27;;;16.10;99.90;;;;;;4927981;29;20048;-84
2023/05/11 11:27:38;;;;;;;10.80;9.90;;;16.20;99.90;;;;;;4934933;29;20127;-84
2023/05/11 11:30:14;;;;;;;10.65;9.65;;;16.50;99.90;;;;;;4933218;29;20048;-84
2023/05/11 11:32:40;;;;;;;13.38;10.48;;;16.60;99.90;;;;;;4917423;29;20594;-84
2023/05/11 11:35:38;;;;;;;12.75;10.48;;;16.60;99.90;;;;;;4920194;29;20066;-83
2023/05/11 11:38:04;;;;;;;11.77;9.85;;;16.80;99.90;;;;;;4917013;29;20044;-83
2023/05/11 11:40:41;;;;;;;12.68;11.38;;;16.90;99.90;;;;;;4951334;23;20137;-83
2023/05/11 11:43:18;;;;;;;11.27;10.18;;;16.90;99.90;;;;;;4965909;28;20040;-84
2023/05/11 11:46:00;;;;;;;10.57;9.02;;;17.10;99.90;;;;;;4984744;28;20051;-84
2023/05/11 11:48:30;;;;;;;10.18;9.18;;;16.80;99.90;;;;;;4969888;28;20038;-83
2023/05/11 11:51:07;;;;;;;12.40;10.20;;;16.70;99.90;;;;;;4967176;28;20043;-83
2023/05/11 11:53:39;;;;;;;10.30;9.30;;;16.80;99.90;;;;;;4948210;29;20043;-84
2023/05/11 11:56:07;;;;;;;11.40;10.27;;;16.60;99.90;;;;;;4949879;29;20055;-84
2023/05/11 11:58:43;;;;;;;9.50;8.57;;;16.50;99.90;;;;;;4936174;29;20050;-84
2023/05/11 12:01:17;;;;;;;11.10;10.00;;;16.60;99.90;;;;;;4935662;29;20517;-84
2023/05/11 12:03:47;;;;;;;10.67;9.53;;;16.70;99.90;;;;;;4952904;29;20129;-84
2023/05/11 12:06:13;;;;;;;8.93;8.15;;;16.70;99.90;;;;;;4951869;29;20069;-84
2023/05/11 12:08:40;;;;;;;9.27;8.35;;;16.70;99.90;;;;;;4950784;28;20498;-83
2023/05/11 12:11:06;;;;;;;9.68;8.18;;;16.70;99.90;;;;;;4949868;29;20042;-84
2023/05/11 12:13:34;;;;;;;8.88;8.05;;;16.80;99.90;;;;;;4958772;28;20035;-84
2023/05/11 12:16:13;;;;;;;9.95;8.88;;;16.70;99.90;;;;;;4951099;29;20054;-84
2023/05/11 12:18:40;;;;;;;8.90;7.70;;;16.80;99.90;;;;;;4949672;28;20226;-84
2023/05/11 12:21:09;;;;;;;7.28;6.68;;;17.00;99.90;;;;;;4946611;29;20043;-84
2023/05/11 12:23:35;;;;;;;8.80;6.90;;;17.00;99.90;;;;;;4931529;29;20050;-84
2023/05/11 12:26:09;;;;;;;9.40;8.57;;;16.80;99.90;;;;;;4946645;29;20773;-83
2023/05/11 12:28:35;;;;;;;7.93;7.00;;;17.20;99.90;;;;;;4947288;29;20042;-83
2023/05/11 12:31:01;;;;;;;6.60;5.95;;;17.00;99.90;;;;;;4925963;29;20031;-83
2023/05/11 12:33:27;;;;;;;5.88;5.35;;;17.10;99.90;;;;;;4957610;28;20502;-85
2023/05/11 12:35:54;;;;;;;6.57;5.97;;;17.10;99.90;;;;;;4950147;29;20051;-85
2023/05/11 12:38:20;;;;;;;6.22;5.05;;;17.50;99.90;;;;;;4930243;29;20133;-85
2023/05/11 12:41:04;;;;;;;6.00;5.50;;;17.40;99.90;;;;;;4932735;29;20074;-84
2023/05/11 12:44:13;;;;;;;;;;;;;;;;;;;;;
2023/05/11 12:47:08;;;;;;;3.47;2.78;;;17.50;99.90;;;;;;4945144;28;20035;-84
2023/05/11 12:49:53;;;;;;;3.35;2.97;;;17.50;99.90;;;;;;4932198;29;20039;-84
2023/05/11 12:53:05;;;;;;;6.47;3.80;;;17.30;99.90;;;;;;4944138;29;20177;-86
2023/05/11 12:55:46;;;;;;;5.05;3.72;;;17.00;99.90;;;;;;4942439;28;20078;-85
2023/05/11 12:58:24;;;;;;;6.22;3.00;;;17.40;99.90;;;;;;4931431;29;20054;-83
2023/05/11 13:01:18;;;;;;;5.68;4.15;;;17.50;99.90;;;;;;4950091;28;20043;-85
2023/05/11 13:04:18;;;;;;;;;;;;;;;;;;;;;
2023/05/11 13:06:57;;;;;;;3.83;2.78;;;17.30;99.90;;;;;;4936097;29;20051;-84
2023/05/11 13:09:28;;;;;;;3.25;2.50;;;17.20;99.90;;;;;;4931545;29;20062;-83
2023/05/11 13:12:22;;;;;;;;;;;;;;;;;;;;;
2023/05/11 13:15:32;;;;;;;4.03;3.03;;;17.30;99.90;;;;;;4947654;28;20405;-85
2023/05/11 13:18:43;;;;;;;4.13;3.53;;;17.60;99.90;;;;;;4858527;29;20176;-84
2023/05/11 13:21:10;;;;;;;4.40;3.55;;;17.40;99.90;;;;;;4938614;29;20051;-84
2023/05/11 13:23:35;;;;;;;3.10;2.90;;;17.40;99.90;;;;;;4945274;28;20059;-83
2023/05/11 13:26:08;;;;;;;3.75;3.17;;;17.60;99.90;;;;;;4928335;29;20058;-83
2023/05/11 13:28:36;;;;;;;3.63;3.20;;;17.90;99.90;;;;;;4929260;29;20035;-85